createdAt,value
2023-01-21T00:01:59.264Z,45.27
2023-01-21T00:07:01.358Z,42.55
2023-01-21T00:12:03.209Z,37.10
2023-01-21T00:17:05.166Z,42.78
2023-01-21T00:22:07.203Z,42.58
2023-01-21T00:27:09.017Z,46.50
2023-01-21T00:32:10.874Z,43.60
2023-01-21T00:37:12.497Z,41.88
2023-01-21T00:42:14.235Z,43.30
2023-01-21T00:47:15.937Z,44.73
2023-01-21T00:52:17.668Z,43.93
2023-01-21T00:57:19.420Z,40.73
2023-01-21T01:02:21.292Z,39.72
2023-01-21T01:07:23.064Z,46.27
2023-01-21T01:12:24.807Z,42.95
2023-01-21T01:17:26.407Z,45.37
2023-01-21T01:22:28.578Z,41.53
2023-01-21T01:27:30.815Z,39.90
2023-01-21T01:32:32.472Z,46.20
2023-01-21T01:37:34.130Z,49.07
2023-01-21T01:42:36.057Z,49.30
2023-01-21T01:47:43.533Z,48.97
2023-01-21T01:52:46.408Z,51.33
2023-01-21T01:57:52.304Z,49.42
2023-01-21T02:03:13.362Z,46.75
2023-01-21T02:08:16.302Z,46.03
2023-01-21T02:13:18.208Z,44.90
2023-01-21T02:18:34.713Z,50.70
2023-01-21T02:24:07.440Z,47.92
2023-01-21T02:29:40.050Z,45.67
2023-01-21T02:34:45.151Z,53.10
2023-01-21T02:40:13.055Z,47.08
2023-01-21T02:45:24.485Z,45.35
2023-01-21T02:50:30.326Z,50.97
2023-01-21T02:55:37.933Z,48.90
2023-01-21T03:01:00.211Z,53.00
2023-01-21T03:06:07.979Z,47.13
2023-01-21T03:11:21.180Z,46.53
2023-01-21T03:16:49.771Z,49.95
2023-01-21T03:21:53.654Z,45.20
2023-01-21T03:26:58.939Z,47.30
2023-01-21T03:32:06.124Z,50.15
2023-01-21T03:37:17.861Z,50.30
2023-01-21T03:42:20.009Z,48.57
2023-01-21T03:47:32.584Z,48.25
2023-01-21T03:57:36.291Z,51.60
2023-01-21T04:02:37.990Z,49.27
2023-01-21T04:07:39.833Z,46.37
2023-01-21T04:12:41.531Z,45.10
2023-01-21T04:17:44.145Z,47.47
2023-01-21T04:22:45.815Z,47.60
2023-01-21T04:27:47.470Z,47.77
2023-01-21T04:32:49.137Z,46.07
2023-01-21T04:37:50.821Z,47.97
2023-01-21T04:42:52.544Z,46.20
2023-01-21T04:47:54.281Z,41.47
2023-01-21T04:52:56.122Z,45.83
2023-01-21T04:57:58.057Z,45.58
2023-01-21T05:02:59.740Z,42.57
2023-01-21T05:08:01.426Z,50.47
2023-01-21T05:13:03.278Z,41.10
2023-01-21T05:18:05.024Z,41.67
2023-01-21T05:23:06.782Z,34.47
2023-01-21T05:28:08.519Z,32.93
2023-01-21T05:33:10.174Z,33.73
2023-01-21T05:38:11.941Z,39.33
2023-01-21T05:43:14.342Z,38.78
2023-01-21T05:48:16.086Z,41.50
2023-01-21T05:53:19.451Z,42.17
2023-01-21T05:58:22.202Z,40.15
2023-01-21T06:03:24.571Z,38.78
2023-01-21T06:08:26.330Z,43.03
2023-01-21T06:13:28.179Z,43.67
2023-01-21T06:18:29.956Z,36.17
2023-01-21T06:23:31.824Z,37.20
2023-01-21T06:28:33.521Z,38.95
2023-01-21T06:33:35.172Z,41.60
2023-01-21T06:38:37.377Z,43.00
2023-01-21T06:43:39.145Z,39.45
2023-01-21T06:48:42.711Z,37.53
2023-01-21T06:53:44.464Z,44.72
2023-01-21T06:58:46.297Z,37.08
2023-01-21T07:03:48.000Z,38.13
2023-01-21T07:08:49.666Z,41.10
2023-01-21T07:13:51.310Z,35.83
2023-01-21T07:18:53.059Z,41.97
2023-01-21T07:23:55.405Z,41.65
2023-01-21T07:28:57.139Z,48.30
2023-01-21T07:33:59.421Z,43.87
2023-01-21T07:39:01.222Z,42.65
2023-01-21T07:44:03.424Z,44.85
2023-01-21T07:49:05.240Z,41.13
2023-01-21T07:54:07.021Z,41.20
2023-01-21T07:59:10.150Z,40.07
2023-01-21T08:04:11.962Z,39.70
2023-01-21T08:09:13.797Z,43.15
2023-01-21T08:14:15.679Z,42.67
2023-01-21T08:19:17.343Z,41.50
2023-01-21T08:24:19.075Z,40.53
2023-01-21T08:29:20.902Z,38.33
2023-01-21T08:34:22.547Z,34.67
2023-01-21T08:39:24.316Z,33.57
2023-01-21T08:44:26.043Z,36.70
2023-01-21T08:49:27.667Z,39.17
2023-01-21T08:54:29.730Z,36.63
2023-01-21T08:59:31.611Z,36.23
2023-01-21T09:04:33.328Z,38.53
2023-01-21T09:09:35.017Z,34.93
2023-01-21T09:14:36.820Z,36.72
2023-01-21T09:19:38.430Z,38.83
2023-01-21T09:24:40.138Z,39.00
2023-01-21T09:29:41.863Z,126.73
2023-01-21T09:34:43.568Z,40.97
2023-01-21T09:39:45.266Z,35.20
2023-01-21T09:44:51.492Z,36.50
2023-01-21T09:50:08.492Z,38.38
2023-01-21T09:55:21.378Z,34.00
2023-01-21T10:00:49.317Z,37.78
2023-01-21T10:06:16.535Z,37.33
2023-01-21T10:12:15.648Z,37.60
2023-01-21T10:17:35.931Z,36.33
2023-01-21T10:22:46.314Z,38.25
2023-01-21T10:27:47.977Z,37.38
2023-01-21T10:32:52.958Z,36.67
2023-01-21T10:38:07.016Z,36.60
2023-01-21T10:43:13.157Z,35.22
2023-01-21T10:48:36.325Z,37.17
2023-01-21T10:54:05.992Z,36.92
2023-01-21T10:59:12.595Z,37.70
2023-01-21T11:04:22.093Z,36.42
2023-01-21T11:09:29.582Z,55.08
2023-01-21T11:14:31.462Z,40.60
2023-01-21T11:19:33.396Z,43.53
2023-01-21T11:24:48.617Z,36.67
2023-01-21T11:29:50.939Z,38.13
2023-01-21T11:34:59.315Z,34.33
2023-01-21T11:40:06.416Z,39.15
2023-01-21T11:45:27.828Z,31.80
2023-01-21T11:50:34.772Z,35.67
2023-01-21T11:55:45.171Z,32.20
2023-01-21T12:00:49.243Z,33.13
2023-01-21T12:05:54.129Z,34.35
2023-01-21T12:11:01.948Z,33.17
2023-01-21T12:16:27.033Z,35.15
2023-01-21T12:22:02.877Z,32.55
2023-01-21T12:27:32.465Z,34.13
2023-01-21T12:32:40.787Z,32.25
2023-01-21T12:37:48.359Z,27.75
2023-01-21T12:42:55.977Z,32.30
2023-01-21T12:48:04.724Z,26.88
2023-01-21T12:53:09.521Z,26.15
2023-01-21T12:58:20.890Z,25.65
2023-01-21T13:03:28.498Z,24.88
2023-01-21T13:08:40.245Z,24.13
2023-01-21T13:13:52.876Z,22.45
2023-01-21T13:18:56.488Z,22.33
2023-01-21T13:24:16.151Z,21.50
2023-01-21T13:29:29.764Z,21.77
2023-01-21T13:34:50.767Z,22.73
2023-01-21T13:40:11.101Z,21.23
2023-01-21T13:45:35.504Z,23.98
2023-01-21T13:50:55.779Z,19.95
2023-01-21T13:56:12.698Z,19.65
2023-01-21T14:01:33.552Z,19.08
2023-01-21T14:06:53.164Z,19.58
2023-01-21T14:12:43.033Z,22.38
2023-01-21T14:17:51.573Z,17.20
2023-01-21T14:23:06.982Z,15.73
2023-01-21T14:28:21.002Z,14.68
2023-01-21T14:34:05.038Z,16.73
2023-01-21T14:39:18.921Z,17.08
2023-01-21T14:44:39.938Z,18.30
2023-01-21T14:49:45.323Z,17.02
2023-01-21T14:54:48.274Z,17.65
2023-01-21T14:59:52.505Z,15.45
2023-01-21T15:04:59.985Z,14.82
2023-01-21T15:10:10.562Z,12.35
2023-01-21T15:16:01.562Z,13.93
2023-01-21T15:21:33.378Z,16.58
2023-01-21T15:26:37.609Z,13.52
2023-01-21T15:31:44.517Z,14.43
2023-01-21T15:36:50.416Z,14.95
2023-01-21T15:42:09.203Z,13.20
2023-01-21T15:47:20.129Z,15.48
2023-01-21T15:52:47.724Z,14.55
2023-01-21T15:58:12.191Z,15.95
2023-01-21T16:03:32.869Z,14.20
2023-01-21T16:09:02.000Z,16.58
2023-01-21T16:14:28.573Z,15.82
2023-01-21T16:19:36.598Z,18.20
2023-01-21T16:24:42.737Z,22.30
2023-01-21T16:29:44.635Z,19.13
2023-01-21T16:34:47.666Z,17.70
2023-01-21T16:39:53.994Z,19.83
2023-01-21T16:44:55.938Z,18.70
2023-01-21T16:49:57.751Z,20.67
2023-01-21T16:54:59.595Z,20.93
2023-01-21T17:00:02.530Z,20.30
2023-01-21T17:05:05.279Z,22.52
2023-01-21T17:15:41.478Z,20.40
2023-01-21T17:20:48.621Z,19.42
2023-01-21T17:25:58.610Z,18.27
2023-01-21T17:31:17.964Z,19.63
2023-01-21T17:36:31.418Z,20.83
2023-01-21T17:41:38.478Z,20.92
2023-01-21T17:46:45.815Z,20.55
2023-01-21T17:51:48.481Z,22.95
2023-01-21T18:01:52.975Z,21.52
2023-01-21T18:11:58.039Z,20.58
2023-01-21T18:16:59.730Z,22.80
2023-01-21T18:22:03.318Z,29.13
2023-01-21T18:27:05.046Z,22.00
2023-01-21T18:32:06.816Z,23.03
2023-01-21T18:37:14.504Z,22.15
2023-01-21T18:42:17.925Z,26.75
2023-01-21T18:47:20.437Z,24.60
2023-01-21T18:52:22.119Z,22.25
2023-01-21T18:57:23.821Z,30.70
2023-01-21T19:02:26.204Z,26.97
2023-01-21T19:07:28.119Z,27.55
2023-01-21T19:12:30.118Z,28.48
2023-01-21T19:17:33.268Z,29.42
2023-01-21T19:22:35.368Z,26.42
2023-01-21T19:27:43.796Z,27.38
2023-01-21T19:32:46.222Z,25.58
2023-01-21T19:37:49.346Z,25.40
2023-01-21T19:42:52.613Z,25.77
2023-01-21T19:47:54.727Z,24.02
2023-01-21T19:52:56.361Z,24.92
2023-01-21T19:58:01.782Z,24.93
2023-01-21T20:03:03.628Z,25.27
2023-01-21T20:08:06.195Z,20.93
2023-01-21T20:13:12.892Z,23.15
2023-01-21T20:18:26.407Z,24.05
2023-01-21T20:23:28.907Z,25.80
2023-01-21T20:28:40.381Z,23.23
2023-01-21T20:33:43.966Z,28.70
2023-01-21T20:38:46.030Z,27.17
2023-01-21T20:43:47.707Z,25.13
2023-01-21T20:48:51.571Z,27.87
2023-01-21T20:53:53.262Z,31.40
2023-01-21T20:58:55.422Z,30.20
2023-01-21T21:03:57.057Z,31.73
2023-01-21T21:08:58.848Z,24.67
2023-01-21T21:14:01.790Z,27.30
2023-01-21T21:19:04.005Z,27.13
2023-01-21T21:24:06.543Z,25.88
2023-01-21T21:34:13.581Z,25.33
2023-01-21T21:39:19.183Z,25.13
2023-01-21T21:44:20.937Z,27.02
2023-01-21T21:49:22.936Z,24.83
2023-01-21T21:54:24.789Z,26.92
2023-01-21T21:59:26.511Z,31.70
2023-01-21T22:04:28.352Z,32.67
2023-01-21T22:09:30.101Z,32.70
2023-01-21T22:14:31.881Z,31.70
2023-01-21T22:19:33.556Z,28.20
2023-01-21T22:24:35.287Z,27.20
2023-01-21T22:29:36.938Z,35.20
2023-01-21T22:34:38.563Z,27.63
2023-01-21T22:39:40.185Z,28.30
2023-01-21T22:44:41.847Z,27.17
2023-01-21T22:49:44.782Z,31.07
2023-01-21T22:54:48.169Z,27.70
2023-01-21T22:59:51.129Z,26.92
2023-01-21T23:04:52.807Z,27.13
2023-01-21T23:09:54.917Z,26.50
2023-01-21T23:14:56.833Z,27.45
2023-01-21T23:19:58.554Z,27.57
2023-01-21T23:25:00.473Z,29.93
2023-01-21T23:30:02.191Z,26.75
2023-01-21T23:35:04.539Z,25.83
2023-01-21T23:45:08.930Z,28.57
2023-01-21T23:50:12.714Z,28.50
2023-01-21T23:55:14.670Z,27.50
